Time;durP1;ratioP1;P1;durP2;ratioP2;P2;SDS_P1;SDS_P2;PMS_P1;PMS_P2;Temp;Humidity;BMP_temperature;BMP_pressure;BME280_temperature;BME280_humidity;BME280_pressure;Samples;Min_cycle;Max_cycle;Signal;HPM_P1;HPM_P2
2022/01/17 00:01:57;;;;;;;31.98;16.98;;;6.30;99.90;;;;;;5089138;28;20112;-47
2022/01/17 00:04:23;;;;;;;36.08;17.17;;;6.30;99.90;;;;;;5089055;28;20408;-45
2022/01/17 00:06:48;;;;;;;39.42;16.77;;;6.30;99.90;;;;;;5089154;28;20092;-45
2022/01/17 00:09:14;;;;;;;29.05;16.90;;;6.30;99.90;;;;;;5088859;28;20046;-45
2022/01/17 00:11:45;;;;;;;33.95;16.63;;;6.30;99.90;;;;;;5089050;28;20016;-45
2022/01/17 00:14:15;;;;;;;38.50;16.33;;;6.30;99.90;;;;;;5089047;28;20103;-45
2022/01/17 00:16:47;;;;;;;30.02;15.25;;;6.30;99.90;;;;;;5089166;28;20436;-46
2022/01/17 00:19:35;;;;;;;28.70;15.52;;;6.20;99.90;;;;;;5088248;28;20130;-45
2022/01/17 00:22:01;;;;;;;28.75;15.07;;;6.30;99.90;;;;;;5088919;28;20060;-45
2022/01/17 00:24:27;;;;;;;24.67;14.85;;;6.40;99.90;;;;;;5088591;28;20024;-45
2022/01/17 00:26:52;;;;;;;37.00;15.77;;;6.40;99.90;;;;;;5079547;28;20021;-45
2022/01/17 00:29:18;;;;;;;37.03;16.05;;;6.40;99.90;;;;;;5088378;28;20297;-46
2022/01/17 00:31:43;;;;;;;34.00;15.68;;;6.40;99.90;;;;;;5088672;28;20081;-45
2022/01/17 00:34:09;;;;;;;33.75;15.55;;;6.40;99.90;;;;;;5088606;28;20111;-45
2022/01/17 00:36:34;;;;;;;25.63;14.15;;;6.40;99.90;;;;;;5088596;28;20035;-45
2022/01/17 00:39:00;;;;;;;26.48;14.57;;;6.40;99.90;;;;;;5086810;28;20063;-46
2022/01/17 00:41:26;;;;;;;31.77;13.93;;;6.40;99.90;;;;;;5088585;28;20250;-46
2022/01/17 00:43:52;;;;;;;27.25;13.93;;;6.40;99.90;;;;;;5088528;28;20385;-44
2022/01/17 00:46:17;;;;;;;25.02;13.00;;;6.50;99.90;;;;;;5088496;28;20016;-45
2022/01/17 00:48:43;;;;;;;34.10;12.88;;;6.50;99.90;;;;;;5091893;28;20032;-45
2022/01/17 00:51:08;;;;;;;32.35;12.95;;;6.40;99.90;;;;;;5093121;28;20081;-45
2022/01/17 00:53:36;;;;;;;28.70;12.45;;;6.50;99.90;;;;;;5091674;28;20020;-45
2022/01/17 00:56:03;;;;;;;24.33;12.30;;;6.50;99.90;;;;;;5084382;28;20063;-46
2022/01/17 00:58:29;;;;;;;28.13;12.25;;;6.40;99.90;;;;;;5083684;28;20028;-45
2022/01/17 01:00:54;;;;;;;19.17;10.52;;;6.50;99.90;;;;;;5092850;28;20059;-45
2022/01/17 01:03:21;;;;;;;21.92;10.27;;;6.50;99.90;;;;;;5092715;28;20036;-45
2022/01/17 01:05:46;;;;;;;17.13;8.65;;;6.50;99.90;;;;;;5092559;28;20016;-44
2022/01/17 01:08:12;;;;;;;21.52;8.73;;;6.50;99.90;;;;;;5092020;28;20028;-45
2022/01/17 01:10:38;;;;;;;18.05;7.93;;;6.50;99.90;;;;;;5092087;28;20066;-44
2022/01/17 01:13:03;;;;;;;15.93;6.65;;;6.50;99.90;;;;;;5092462;28;20032;-46
2022/01/17 01:18:18;;;;;;;13.80;5.55;;;6.40;99.90;;;;;;5091964;28;20048;-45
2022/01/17 01:28:41;;;;;;;10.80;4.07;;;6.40;99.90;;;;;;5083342;28;20039;-45
2022/01/17 01:31:15;;;;;;;7.88;3.65;;;6.30;99.90;;;;;;5092082;28;20417;-48
2022/01/17 01:33:42;;;;;;;9.88;3.50;;;6.30;99.90;;;;;;5091964;28;20024;-47
2022/01/17 01:36:13;;;;;;;9.75;2.60;;;6.30;99.90;;;;;;5092267;28;20020;-45
2022/01/17 01:38:41;;;;;;;9.68;2.58;;;6.30;99.90;;;;;;5089949;28;20489;-46
2022/01/17 01:41:07;;;;;;;11.07;3.28;;;6.30;99.90;;;;;;5091562;28;20020;-46
2022/01/17 01:43:32;;;;;;;10.00;3.50;;;6.30;99.90;;;;;;5091851;28;20060;-47
2022/01/17 01:46:00;;;;;;;6.03;2.05;;;6.30;99.90;;;;;;5091956;28;20060;-45
2022/01/17 01:48:28;;;;;;;8.57;2.40;;;6.30;99.90;;;;;;5089854;28;20401;-46
2022/01/17 01:50:53;;;;;;;7.97;2.38;;;6.20;99.90;;;;;;5092134;28;20016;-48
2022/01/17 01:53:19;;;;;;;9.60;2.38;;;6.20;99.90;;;;;;5091527;28;20028;-47
2022/01/17 01:55:45;;;;;;;9.32;2.20;;;6.20;99.90;;;;;;5084861;28;20486;-46
2022/01/17 01:58:11;;;;;;;7.05;1.95;;;6.20;99.90;;;;;;5080992;28;20025;-45
2022/01/17 02:00:37;;;;;;;5.82;1.75;;;6.10;99.90;;;;;;5091629;28;20452;-44
2022/01/17 02:03:04;;;;;;;20.38;2.25;;;6.20;99.90;;;;;;5091408;28;20280;-45
2022/01/17 02:05:30;;;;;;;11.95;2.90;;;6.20;99.90;;;;;;5091340;28;20484;-44
2022/01/17 02:07:56;;;;;;;9.45;1.75;;;6.20;99.90;;;;;;5090613;28;20218;-44
2022/01/17 02:10:21;;;;;;;12.43;2.38;;;6.20;99.90;;;;;;5089884;28;20020;-47
2022/01/17 02:12:47;;;;;;;7.60;1.90;;;6.20;99.90;;;;;;5089727;28;20490;-45
2022/01/17 02:15:14;;;;;;;13.80;2.78;;;6.20;99.90;;;;;;5091239;28;20059;-44
2022/01/17 02:17:45;;;;;;;11.60;2.60;;;6.20;99.90;;;;;;5090500;28;20205;-45
2022/01/17 02:20:21;;;;;;;14.23;1.98;;;6.20;99.90;;;;;;5091023;28;20024;-44
2022/01/17 02:22:46;;;;;;;10.00;2.10;;;6.20;99.90;;;;;;5090810;28;20051;-44
2022/01/17 02:25:12;;;;;;;14.20;2.28;;;6.10;99.90;;;;;;5090403;28;20458;-45
2022/01/17 02:27:37;;;;;;;15.70;1.95;;;6.10;99.90;;;;;;5069223;28;20090;-45
2022/01/17 02:30:05;;;;;;;13.90;2.95;;;6.10;99.90;;;;;;5063496;28;20099;-44
2022/01/17 02:32:30;;;;;;;16.67;2.75;;;6.20;99.90;;;;;;5060992;28;20561;-45
2022/01/17 02:35:17;;;;;;;14.07;2.40;;;6.20;99.90;;;;;;5068326;28;20107;-45
2022/01/17 02:37:43;;;;;;;18.65;2.90;;;6.10;99.90;;;;;;5059903;28;20027;-45
2022/01/17 02:40:09;;;;;;;25.23;5.00;;;6.10;99.90;;;;;;5060362;28;20039;-45
2022/01/17 02:42:36;;;;;;;13.60;2.83;;;6.20;99.90;;;;;;5058529;28;20215;-45
2022/01/17 02:45:11;;;;;;;15.45;2.55;;;6.20;99.90;;;;;;5064870;28;20466;-45
2022/01/17 02:47:38;;;;;;;20.23;2.90;;;6.20;99.90;;;;;;5061908;28;20063;-47
2022/01/17 02:50:04;;;;;;;16.17;2.88;;;6.10;99.90;;;;;;5059386;28;20398;-45
2022/01/17 02:52:30;;;;;;;18.77;3.58;;;6.10;99.90;;;;;;5061500;28;20048;-44
2022/01/17 02:54:55;;;;;;;12.30;2.70;;;6.10;99.90;;;;;;5070388;28;20079;-46
2022/01/17 02:57:21;;;;;;;14.52;2.40;;;6.10;99.90;;;;;;5074999;28;20028;-44
2022/01/17 02:59:46;;;;;;;13.88;3.13;;;6.10;99.90;;;;;;5064602;28;20025;-44
2022/01/17 03:02:12;;;;;;;20.65;3.17;;;6.20;99.90;;;;;;5058375;28;20071;-44
2022/01/17 03:04:37;;;;;;;15.20;2.42;;;6.20;99.90;;;;;;5059827;28;20481;-44
2022/01/17 03:07:03;;;;;;;18.88;3.03;;;6.20;99.90;;;;;;5059826;28;20051;-44
2022/01/17 03:09:35;;;;;;;17.42;3.45;;;6.20;99.90;;;;;;5068359;28;20234;-45
2022/01/17 03:12:01;;;;;;;13.48;3.17;;;6.20;99.90;;;;;;5069591;28;20071;-44
2022/01/17 03:14:26;;;;;;;20.50;2.63;;;6.10;99.90;;;;;;5068146;28;20382;-44
2022/01/17 03:16:55;;;;;;;16.85;2.67;;;6.20;99.90;;;;;;5069551;28;20043;-44
2022/01/17 03:19:20;;;;;;;14.35;2.40;;;6.20;99.90;;;;;;5067519;28;20027;-46
2022/01/17 03:21:46;;;;;;;15.32;2.78;;;6.20;99.90;;;;;;5069647;28;20490;-44
2022/01/17 03:24:11;;;;;;;18.67;3.08;;;6.10;99.90;;;;;;5067999;28;20024;-45
2022/01/17 03:26:37;;;;;;;14.90;2.92;;;6.10;99.90;;;;;;5075263;28;20016;-47
2022/01/17 03:29:03;;;;;;;19.58;2.80;;;6.10;99.90;;;;;;5080417;28;20099;-43
2022/01/17 03:31:29;;;;;;;14.27;3.10;;;6.20;99.90;;;;;;5089657;28;20107;-45
2022/01/17 03:33:54;;;;;;;13.05;2.40;;;6.10;99.90;;;;;;5089573;28;20099;-44
2022/01/17 03:36:20;;;;;;;19.17;3.13;;;6.20;99.90;;;;;;5088258;28;20085;-44
2022/01/17 03:38:46;;;;;;;14.95;2.65;;;6.10;99.90;;;;;;5088885;28;20551;-43
2022/01/17 03:41:14;;;;;;;22.92;3.50;;;6.10;99.90;;;;;;5087981;28;20413;-45
2022/01/17 03:43:40;;;;;;;21.20;4.38;;;6.20;99.90;;;;;;5089545;28;20198;-46
2022/01/17 03:46:05;;;;;;;20.70;5.00;;;6.10;99.90;;;;;;5089528;28;20022;-44
2022/01/17 03:48:32;;;;;;;13.18;2.45;;;6.10;99.90;;;;;;5088509;28;20032;-44
2022/01/17 03:50:59;;;;;;;19.13;3.53;;;6.10;99.90;;;;;;5089226;28;20028;-43
2022/01/17 03:53:26;;;;;;;13.38;2.65;;;6.10;99.90;;;;;;5089118;28;20124;-44
2022/01/17 03:55:53;;;;;;;24.33;3.35;;;6.10;99.90;;;;;;5082288;28;20025;-44
2022/01/17 03:58:21;;;;;;;23.45;4.13;;;6.10;99.90;;;;;;5068261;28;20456;-44
2022/01/17 04:00:48;;;;;;;14.00;2.65;;;6.10;99.90;;;;;;5067506;28;20017;-44
2022/01/17 04:03:14;;;;;;;16.63;2.53;;;6.10;99.90;;;;;;5068566;28;20036;-46
2022/01/17 04:05:40;;;;;;;22.42;3.50;;;6.10;99.90;;;;;;5068494;28;20612;-44
2022/01/17 04:08:06;;;;;;;15.23;3.08;;;6.10;99.90;;;;;;5067983;28;20037;-44
2022/01/17 04:10:32;;;;;;;21.15;3.90;;;6.10;99.90;;;;;;5068328;28;20028;-44
2022/01/17 04:13:03;;;;;;;21.38;3.15;;;6.10;99.90;;;;;;5067282;28;20025;-44
2022/01/17 04:15:30;;;;;;;32.60;4.90;;;6.10;99.90;;;;;;5068581;28;20077;-44
2022/01/17 04:17:56;;;;;;;15.73;2.92;;;6.10;99.90;;;;;;5067825;28;20050;-43
2022/01/17 04:20:27;;;;;;;11.38;3.33;;;6.10;99.90;;;;;;5068331;28;20466;-43
2022/01/17 04:22:54;;;;;;;;;;;6.10;99.90;;;;;;5067614;28;20394;-44
2022/01/17 04:25:21;;;;;;;12.00;3.78;;;6.10;99.90;;;;;;5068170;28;20067;-43
2022/01/17 04:27:47;;;;;;;14.23;2.70;;;6.00;99.90;;;;;;5074387;28;20021;-44
2022/01/17 04:30:14;;;;;;;15.02;3.20;;;6.10;99.90;;;;;;5087772;28;20509;-44
2022/01/17 04:32:41;;;;;;;19.25;2.67;;;6.10;99.90;;;;;;5087404;28;20359;-43
2022/01/17 04:35:07;;;;;;;23.17;3.53;;;6.00;99.90;;;;;;5088533;28;20027;-46
2022/01/17 04:37:33;;;;;;;22.92;2.92;;;6.00;99.90;;;;;;5087757;28;20051;-45
2022/01/17 04:39:58;;;;;;;14.80;3.03;;;6.00;99.90;;;;;;5088925;28;20098;-44
2022/01/17 04:42:27;;;;;;;16.25;3.38;;;6.00;99.90;;;;;;5088231;28;20024;-44
2022/01/17 04:45:11;;;;;;;16.73;3.58;;;6.00;99.90;;;;;;5087052;28;20026;-45
2022/01/17 04:47:38;;;;;;;22.65;3.10;;;5.90;99.90;;;;;;5087780;28;20239;-45
2022/01/17 04:50:09;;;;;;;15.75;2.97;;;6.00;99.90;;;;;;5088256;28;20115;-44
2022/01/17 04:52:36;;;;;;;16.98;3.70;;;6.00;99.90;;;;;;5088504;28;20088;-46
2022/01/17 04:55:08;;;;;;;13.85;2.90;;;6.00;99.90;;;;;;5088784;28;20043;-45
2022/01/17 04:57:33;;;;;;;23.20;2.90;;;6.00;99.90;;;;;;5075554;28;20488;-45
2022/01/17 04:59:59;;;;;;;13.65;2.90;;;6.00;99.90;;;;;;5084552;28;20032;-44
2022/01/17 05:02:25;;;;;;;16.67;2.15;;;5.90;99.90;;;;;;5066206;28;20029;-44
2022/01/17 05:04:51;;;;;;;19.63;3.53;;;5.90;99.90;;;;;;5067387;28;20055;-44
2022/01/17 05:07:17;;;;;;;15.43;2.95;;;5.90;99.90;;;;;;5056773;28;20556;-44
2022/01/17 05:09:44;;;;;;;21.00;3.08;;;5.80;99.90;;;;;;5061601;28;20455;-45
2022/01/17 05:12:11;;;;;;;18.75;4.53;;;5.80;99.90;;;;;;5058689;28;20239;-43
2022/01/17 05:14:42;;;;;;;21.02;3.08;;;5.80;99.90;;;;;;5057096;28;20017;-43
2022/01/17 05:19:57;;;;;;;24.75;3.63;;;5.80;99.90;;;;;;5072141;28;20044;-43
2022/01/17 05:22:25;;;;;;;23.33;3.08;;;5.80;99.90;;;;;;5056190;28;20024;-46
2022/01/17 05:24:51;;;;;;;22.10;3.72;;;5.80;99.90;;;;;;5080030;28;20031;-43
2022/01/17 05:27:17;;;;;;;24.42;3.67;;;5.80;99.90;;;;;;5069093;28;20401;-46
2022/01/17 05:29:43;;;;;;;15.50;2.80;;;5.80;99.90;;;;;;5087806;28;20017;-43
2022/01/17 05:32:09;;;;;;;17.65;4.25;;;5.80;99.90;;;;;;5071116;28;20036;-43
2022/01/17 05:34:40;;;;;;;18.15;2.90;;;5.80;99.90;;;;;;5085697;28;20021;-43
2022/01/17 05:37:06;;;;;;;18.27;3.53;;;5.80;99.90;;;;;;5081453;28;20069;-43
2022/01/17 05:39:32;;;;;;;16.55;3.60;;;5.90;99.90;;;;;;5077296;28;20024;-43
2022/01/17 05:41:58;;;;;;;17.15;3.30;;;5.90;99.90;;;;;;5088143;28;20465;-43
2022/01/17 05:44:23;;;;;;;23.27;3.97;;;5.90;99.90;;;;;;5072662;28;20108;-43
2022/01/17 05:46:49;;;;;;;15.70;3.00;;;5.90;99.90;;;;;;5073014;28;20029;-45
2022/01/17 05:49:14;;;;;;;17.85;2.97;;;5.90;99.90;;;;;;5068563;28;20032;-46
2022/01/17 05:51:40;;;;;;;19.48;3.25;;;5.90;99.90;;;;;;5052848;28;20017;-45
2022/01/17 05:54:05;;;;;;;19.48;3.15;;;5.90;99.90;;;;;;5062198;28;20115;-44
2022/01/17 05:56:31;;;;;;;20.20;3.63;;;5.90;99.90;;;;;;5057754;28;20414;-42
2022/01/17 05:58:56;;;;;;;20.85;2.67;;;5.90;99.90;;;;;;5067754;28;20395;-43
2022/01/17 06:01:22;;;;;;;14.23;2.50;;;5.90;99.90;;;;;;5066547;28;20354;-42
2022/01/17 06:03:47;;;;;;;12.02;3.30;;;5.90;99.90;;;;;;5070676;28;20067;-43
2022/01/17 06:06:14;;;;;;;15.43;2.70;;;6.00;99.90;;;;;;5054032;28;20037;-43
2022/01/17 06:08:39;;;;;;;18.52;2.97;;;6.00;99.90;;;;;;5033555;28;20052;-45
2022/01/17 06:11:05;;;;;;;17.42;3.88;;;6.00;99.90;;;;;;5061804;28;20479;-44
2022/01/17 06:13:30;;;;;;;16.65;2.70;;;6.10;99.90;;;;;;5050779;28;20029;-45
2022/01/17 06:15:56;;;;;;;18.27;3.00;;;6.10;99.90;;;;;;5064117;28;20151;-43
2022/01/17 06:18:21;;;;;;;17.48;3.20;;;6.10;99.90;;;;;;5060634;28;20182;-45
2022/01/17 06:20:47;;;;;;;13.68;2.67;;;6.20;99.90;;;;;;5064416;28;20379;-45
2022/01/17 06:23:12;;;;;;;12.80;2.20;;;6.20;99.90;;;;;;5072809;28;20063;-46
2022/01/17 06:25:38;;;;;;;19.50;4.15;;;6.20;99.90;;;;;;5075203;28;20089;-43
2022/01/17 06:28:03;;;;;;;18.50;3.50;;;6.20;99.90;;;;;;5077218;28;20024;-43
2022/01/17 06:30:29;;;;;;;12.38;3.13;;;6.20;99.90;;;;;;5054629;28;20655;-44
2022/01/17 06:32:55;;;;;;;20.63;3.45;;;6.20;99.90;;;;;;5056989;28;20028;-44
2022/01/17 06:35:20;;;;;;;12.45;3.35;;;6.20;99.90;;;;;;5068178;28;20043;-45
2022/01/17 06:37:48;;;;;;;17.70;3.03;;;6.20;99.90;;;;;;5069707;28;20478;-43
2022/01/17 06:40:14;;;;;;;22.55;3.58;;;6.20;99.90;;;;;;5056492;28;20278;-44
2022/01/17 06:42:41;;;;;;;17.42;2.88;;;6.10;99.90;;;;;;5081764;28;20028;-43
2022/01/17 06:45:07;;;;;;;13.77;3.10;;;6.10;99.90;;;;;;5072373;28;20090;-43
2022/01/17 06:47:34;;;;;;;15.13;3.08;;;6.10;99.90;;;;;;5068336;28;20115;-46
2022/01/17 06:50:00;;;;;;;10.55;2.20;;;6.10;99.90;;;;;;5060543;28;20044;-44
2022/01/17 06:52:25;;;;;;;18.35;2.88;;;6.20;99.90;;;;;;5059026;28;20247;-44
2022/01/17 06:54:52;;;;;;;19.65;3.28;;;6.10;99.90;;;;;;5058033;28;20505;-43
2022/01/17 06:57:19;;;;;;;19.70;2.97;;;6.10;99.90;;;;;;5066001;28;20020;-43
2022/01/17 06:59:45;;;;;;;21.98;3.45;;;6.00;99.90;;;;;;5058766;28;20524;-44
2022/01/17 07:02:10;;;;;;;17.35;3.05;;;6.00;99.90;;;;;;5067726;28;20634;-42
2022/01/17 07:04:36;;;;;;;16.73;3.67;;;6.10;99.90;;;;;;5060448;28;20024;-43
2022/01/17 07:07:02;;;;;;;22.92;4.78;;;6.10;99.90;;;;;;5074281;28;20032;-43
2022/01/17 07:09:29;;;;;;;15.48;2.75;;;6.00;99.90;;;;;;5083614;28;20020;-43
2022/01/17 07:11:58;;;;;;;12.35;2.35;;;6.00;99.90;;;;;;5084934;28;20104;-44
2022/01/17 07:14:28;;;;;;;12.50;3.00;;;6.00;99.90;;;;;;5067114;28;20017;-44
2022/01/17 07:16:53;;;;;;;13.25;2.53;;;5.90;99.90;;;;;;5079788;28;20683;-43
2022/01/17 07:19:19;;;;;;;13.63;2.15;;;6.00;99.90;;;;;;5069895;28;20044;-44
2022/01/17 07:21:45;;;;;;;16.63;2.42;;;6.00;99.90;;;;;;5069846;28;20024;-43
2022/01/17 07:24:10;;;;;;;13.68;3.53;;;6.00;99.90;;;;;;5061047;28;20021;-45
2022/01/17 07:26:36;;;;;;;14.98;3.45;;;6.00;99.90;;;;;;5075482;28;20039;-43
2022/01/17 07:29:05;;;;;;;11.07;2.72;;;5.90;99.90;;;;;;5080683;28;20031;-43
2022/01/17 07:31:31;;;;;;;14.70;3.10;;;5.90;99.90;;;;;;5052977;28;20047;-44
2022/01/17 07:33:57;;;;;;;23.58;4.43;;;6.00;99.90;;;;;;5051090;28;20024;-44
2022/01/17 07:36:23;;;;;;;16.83;3.35;;;5.90;99.90;;;;;;5061848;28;20385;-47
2022/01/17 07:38:48;;;;;;;13.95;2.63;;;5.90;99.90;;;;;;5060874;28;20050;-47
2022/01/17 07:41:14;;;;;;;16.77;3.38;;;5.90;99.90;;;;;;5062201;28;20109;-45
2022/01/17 07:43:41;;;;;;;8.75;2.83;;;6.00;99.90;;;;;;5082539;28;20067;-45
2022/01/17 07:46:13;;;;;;;11.27;3.78;;;5.90;99.90;;;;;;5084167;28;20028;-47
2022/01/17 07:51:23;;;;;;;11.40;3.13;;;5.90;99.90;;;;;;5060807;28;20114;-44
2022/01/17 07:53:50;;;;;;;17.75;3.92;;;5.90;99.90;;;;;;5070413;28;20116;-45
2022/01/17 07:56:16;;;;;;;12.45;2.63;;;5.90;99.90;;;;;;5071682;28;20613;-46
2022/01/17 07:58:41;;;;;;;17.98;3.13;;;5.90;99.90;;;;;;5081715;28;20058;-44
2022/01/17 08:01:07;;;;;;;15.93;2.80;;;5.90;99.90;;;;;;5072807;28;20025;-44
2022/01/17 08:03:51;;;;;;;14.13;3.00;;;5.80;99.90;;;;;;5060473;28;20061;-45
2022/01/17 08:06:17;;;;;;;16.90;3.00;;;5.90;99.90;;;;;;5067108;28;20449;-45
2022/01/17 08:08:43;;;;;;;23.98;4.55;;;5.90;99.90;;;;;;5071374;28;20668;-46
2022/01/17 08:11:08;;;;;;;20.67;4.88;;;5.80;99.90;;;;;;5063851;28;20055;-43
2022/01/17 08:13:34;;;;;;;17.58;3.00;;;5.80;99.90;;;;;;5080670;28;20024;-44
2022/01/17 08:16:02;;;;;;;18.17;3.67;;;5.80;99.90;;;;;;5057873;28;20465;-44
2022/01/17 08:18:27;;;;;;;23.15;3.35;;;5.80;99.90;;;;;;5059089;28;20036;-43
2022/01/17 08:20:53;;;;;;;13.73;3.50;;;5.80;99.90;;;;;;5051235;28;20479;-43
2022/01/17 08:23:18;;;;;;;12.60;2.88;;;5.80;99.90;;;;;;5051734;28;20032;-43
2022/01/17 08:25:44;;;;;;;12.13;3.08;;;5.80;99.90;;;;;;5076235;28;20536;-44
2022/01/17 08:28:09;;;;;;;10.13;3.47;;;5.80;99.90;;;;;;5072481;28;20020;-46
2022/01/17 08:30:35;;;;;;;11.27;2.80;;;5.90;99.90;;;;;;5061057;28;20021;-47
2022/01/17 08:33:00;;;;;;;8.38;2.67;;;5.90;99.90;;;;;;5058348;28;20108;-44
2022/01/17 08:35:26;;;;;;;17.83;3.25;;;5.90;99.90;;;;;;5061210;28;20028;-47
2022/01/17 08:37:52;;;;;;;12.77;2.50;;;5.90;99.90;;;;;;5054888;28;20573;-45
2022/01/17 08:40:19;;;;;;;16.75;2.45;;;5.90;99.90;;;;;;5050138;28;20115;-44
2022/01/17 08:42:46;;;;;;;10.50;2.65;;;5.90;99.90;;;;;;5049793;28;20021;-45
2022/01/17 08:45:13;;;;;;;16.08;3.25;;;5.90;99.90;;;;;;5049847;28;20065;-44
2022/01/17 08:47:39;;;;;;;12.48;2.65;;;5.90;99.90;;;;;;5063789;28;20025;-44
2022/01/17 08:50:06;;;;;;;11.95;2.65;;;6.00;99.90;;;;;;5052138;28;20040;-44
2022/01/17 08:52:32;;;;;;;13.10;2.42;;;5.90;99.90;;;;;;5050251;28;20119;-44
2022/01/17 08:54:58;;;;;;;11.93;2.40;;;6.00;99.90;;;;;;5049632;28;20132;-45
2022/01/17 08:57:24;;;;;;;9.70;3.65;;;6.00;99.90;;;;;;5061512;28;20414;-44
2022/01/17 08:59:50;;;;;;;12.05;2.92;;;6.00;99.90;;;;;;5067727;28;20032;-44
2022/01/17 09:02:16;;;;;;;12.88;3.38;;;5.90;99.90;;;;;;5064332;28;20029;-44
2022/01/17 09:04:42;;;;;;;11.75;2.60;;;5.90;99.90;;;;;;5058551;28;20029;-45
2022/01/17 09:07:14;;;;;;;11.95;3.75;;;5.90;99.90;;;;;;5056935;28;20047;-44
2022/01/17 09:09:41;;;;;;;10.93;2.60;;;5.90;99.90;;;;;;5060289;28;20452;-46
2022/01/17 09:12:09;;;;;;;19.25;3.20;;;5.90;99.90;;;;;;5060315;28;20139;-44
2022/01/17 09:14:36;;;;;;;17.10;2.70;;;5.90;99.90;;;;;;5062661;28;20028;-44
2022/01/17 09:17:03;;;;;;;15.35;4.20;;;6.00;99.90;;;;;;5063923;28;20491;-45
2022/01/17 09:19:29;;;;;;;8.48;2.75;;;6.00;99.90;;;;;;5060120;28;20271;-45
2022/01/17 09:21:55;;;;;;;14.77;3.10;;;6.00;99.90;;;;;;5062035;28;20413;-45
2022/01/17 09:24:21;;;;;;;14.77;3.55;;;6.10;99.90;;;;;;5063258;28;20025;-45
2022/01/17 09:30:12;;;;;;;15.05;3.28;;;6.20;99.90;;;;;;5069311;28;20110;-45
2022/01/17 09:32:38;;;;;;;12.55;2.22;;;6.30;99.90;;;;;;5082750;28;20427;-45
2022/01/17 09:35:05;;;;;;;9.57;2.95;;;6.30;99.90;;;;;;5079475;28;20024;-45
2022/01/17 09:37:31;;;;;;;7.35;2.65;;;6.30;99.90;;;;;;5082643;28;20364;-45
2022/01/17 09:39:56;;;;;;;11.38;3.63;;;6.30;99.90;;;;;;5070115;28;20086;-45
2022/01/17 09:42:22;;;;;;;9.90;2.35;;;6.30;99.90;;;;;;5071476;28;20446;-44
2022/01/17 09:44:47;;;;;;;12.48;2.90;;;6.30;99.90;;;;;;5066339;28;20501;-44
2022/01/17 09:47:14;;;;;;;11.38;2.85;;;6.40;99.90;;;;;;5074805;28;20387;-44
2022/01/17 09:49:50;;;;;;;10.98;2.78;;;6.50;99.90;;;;;;5074326;28;20036;-46
2022/01/17 09:52:35;;;;;;;6.10;2.67;;;6.50;99.90;;;;;;5072436;28;20024;-46
2022/01/17 09:55:06;;;;;;;8.68;2.58;;;6.50;99.90;;;;;;5056401;28;20029;-45
2022/01/17 09:57:37;;;;;;;12.13;2.90;;;6.50;99.90;;;;;;5078048;28;20024;-44
2022/01/17 10:00:03;;;;;;;9.73;2.75;;;6.60;99.90;;;;;;5087886;28;20043;-45
2022/01/17 10:02:29;;;;;;;15.20;3.50;;;6.60;99.90;;;;;;5088651;28;20081;-45
2022/01/17 10:04:54;;;;;;;11.43;2.38;;;6.50;99.90;;;;;;5070759;28;20032;-45
2022/01/17 10:07:20;;;;;;;11.35;3.10;;;6.50;99.90;;;;;;5051934;28;20394;-46
2022/01/17 10:09:58;;;;;;;14.25;3.65;;;6.50;99.90;;;;;;5051821;28;20025;-45
2022/01/17 10:12:23;;;;;;;10.60;3.45;;;6.50;99.90;;;;;;5050657;28;20021;-45
2022/01/17 10:15:03;;;;;;;11.82;3.22;;;6.50;99.90;;;;;;5068914;28;20478;-45
2022/01/17 10:17:46;;;;;;;11.33;3.73;;;6.50;99.90;;;;;;5055599;28;20486;-45
2022/01/17 10:20:16;;;;;;;12.30;3.25;;;6.50;99.90;;;;;;5055255;28;20033;-45
2022/01/17 10:22:57;;;;;;;12.95;2.95;;;6.50;99.90;;;;;;5050277;28;20107;-44
2022/01/17 10:28:10;;;;;;;10.02;2.83;;;6.60;99.90;;;;;;5079792;28;20067;-47
2022/01/17 10:30:52;;;;;;;14.35;4.53;;;6.60;99.90;;;;;;5059972;28;20033;-44
2022/01/17 10:36:02;;;;;;;9.07;3.22;;;6.70;99.90;;;;;;5063765;28;20075;-46
2022/01/17 10:38:27;;;;;;;10.23;2.78;;;6.70;99.90;;;;;;5068654;28;20060;-45
2022/01/17 10:41:02;;;;;;;9.20;3.08;;;6.70;99.90;;;;;;5060278;28;20459;-44
2022/01/17 10:43:45;;;;;;;12.70;3.65;;;6.70;99.90;;;;;;5064945;28;20478;-45
2022/01/17 10:46:13;;;;;;;14.60;3.05;;;6.70;99.90;;;;;;5064748;28;20116;-45
2022/01/17 10:48:45;;;;;;;16.98;4.88;;;6.70;99.90;;;;;;5060653;28;20060;-45
2022/01/17 10:51:12;;;;;;;13.18;4.10;;;6.70;99.90;;;;;;5059073;28;20025;-44
2022/01/17 10:53:40;;;;;;;13.60;4.35;;;6.70;99.90;;;;;;5061496;28;20040;-45
2022/01/17 10:56:08;;;;;;;12.40;3.80;;;6.80;99.90;;;;;;5065648;28;20413;-45
2022/01/17 10:58:37;;;;;;;19.13;4.15;;;6.80;99.90;;;;;;5069441;28;20052;-48
2022/01/17 11:01:11;;;;;;;18.80;4.00;;;6.80;99.90;;;;;;5068517;28;20028;-45
2022/01/17 11:03:38;;;;;;;9.77;4.05;;;6.80;99.90;;;;;;5059018;28;20220;-45
2022/01/17 11:06:19;;;;;;;15.15;3.40;;;6.90;99.90;;;;;;5056621;28;20017;-44
2022/01/17 11:08:46;;;;;;;;;;;6.90;99.90;;;;;;5059180;28;20482;-45
2022/01/17 11:11:11;;;;;;;14.93;4.47;;;6.90;99.90;;;;;;5058264;28;19908;-45
2022/01/17 11:13:39;;;;;;;14.40;3.67;;;6.90;99.90;;;;;;5058274;28;20418;-45
2022/01/17 11:16:10;;;;;;;14.15;4.07;;;6.90;99.90;;;;;;5063046;28;20098;-45
2022/01/17 11:18:36;;;;;;;10.65;3.92;;;6.90;99.90;;;;;;5069326;28;20486;-45
2022/01/17 11:21:10;;;;;;;14.65;3.35;;;7.00;99.90;;;;;;5057918;28;20029;-47
2022/01/17 11:23:37;;;;;;;10.52;2.90;;;7.00;99.90;;;;;;5049506;28;20089;-45
2022/01/17 11:26:02;;;;;;;6.00;2.67;;;6.90;99.90;;;;;;5054364;28;20374;-44
2022/01/17 11:28:30;;;;;;;11.30;4.07;;;7.00;99.90;;;;;;5077529;28;20035;-45
2022/01/17 11:30:58;;;;;;;12.73;4.32;;;7.00;99.90;;;;;;5064749;28;20560;-44
2022/01/17 11:33:25;;;;;;;11.20;3.88;;;7.00;99.90;;;;;;5069239;28;20027;-45
2022/01/17 11:35:53;;;;;;;13.32;3.97;;;7.00;99.90;;;;;;5059405;28;20103;-44
2022/01/17 11:38:35;;;;;;;16.13;4.85;;;6.90;99.90;;;;;;5056932;28;20432;-44
2022/01/17 11:41:02;;;;;;;15.68;4.45;;;6.90;99.90;;;;;;5068637;28;20074;-44
2022/01/17 11:43:35;;;;;;;20.98;4.68;;;6.90;99.90;;;;;;5060831;28;20083;-44
2022/01/17 11:46:20;;;;;;;15.70;5.20;;;6.90;99.90;;;;;;5058076;28;20024;-47
2022/01/17 11:48:56;;;;;;;19.55;4.60;;;6.90;99.90;;;;;;5058908;28;20040;-44
2022/01/17 11:51:22;;;;;;;17.63;4.50;;;6.80;99.90;;;;;;5061030;28;20017;-44
2022/01/17 11:53:54;;;;;;;12.45;4.30;;;6.80;99.90;;;;;;5062233;28;20029;-44
2022/01/17 11:56:38;;;;;;;19.23;5.00;;;6.90;99.90;;;;;;5062580;28;20111;-44
2022/01/17 11:59:32;;;;;;;18.00;5.30;;;6.90;99.90;;;;;;5059853;28;20324;-44
2022/01/17 12:02:17;;;;;;;17.50;4.25;;;7.00;99.90;;;;;;5058453;28;20513;-44
2022/01/17 12:05:11;;;;;;;17.00;3.17;;;7.10;99.90;;;;;;5058911;28;20036;-44
2022/01/17 12:07:37;;;;;;;17.00;3.85;;;7.20;99.90;;;;;;5057350;28;20017;-45
2022/01/17 12:10:11;;;;;;;14.02;3.05;;;7.20;99.90;;;;;;5060769;28;20070;-44
2022/01/17 12:12:37;;;;;;;12.68;2.83;;;7.20;99.90;;;;;;5065471;28;20013;-44
2022/01/17 12:15:08;;;;;;;15.88;2.53;;;7.20;99.90;;;;;;5057433;28;20116;-45
2022/01/17 12:17:35;;;;;;;12.30;2.13;;;7.20;99.90;;;;;;5055985;28;20139;-46
2022/01/17 12:20:03;;;;;;;13.23;2.28;;;7.00;99.90;;;;;;5057231;28;20111;-44
2022/01/17 12:22:49;;;;;;;16.42;2.67;;;7.00;99.90;;;;;;5057059;28;20031;-45
2022/01/17 12:25:29;;;;;;;10.35;2.42;;;7.00;99.90;;;;;;5056919;28;20021;-45
2022/01/17 12:28:03;;;;;;;14.18;2.10;;;7.00;99.90;;;;;;5065621;28;20017;-44
2022/01/17 12:30:50;;;;;;;9.70;1.95;;;7.10;99.90;;;;;;5056765;28;20020;-44
2022/01/17 12:33:27;;;;;;;16.95;2.50;;;7.00;99.90;;;;;;5055183;28;20059;-44
2022/01/17 12:35:57;;;;;;;19.50;2.58;;;7.00;99.90;;;;;;5056270;28;20243;-45
2022/01/17 12:38:32;;;;;;;13.30;2.92;;;7.00;99.90;;;;;;5058195;28;20009;-44
2022/01/17 12:40:58;;;;;;;12.85;2.78;;;7.00;99.90;;;;;;5056285;28;20078;-44
2022/01/17 12:43:34;;;;;;;15.18;3.03;;;7.10;99.90;;;;;;5056132;28;20020;-44
2022/01/17 12:46:10;;;;;;;12.20;3.00;;;7.10;99.90;;;;;;5058092;28;20027;-45
2022/01/17 12:48:38;;;;;;;9.43;2.25;;;7.10;99.90;;;;;;5056756;28;20072;-45
2022/01/17 12:51:07;;;;;;;17.10;3.42;;;7.10;99.90;;;;;;5062020;28;20032;-45
2022/01/17 12:53:34;;;;;;;15.05;3.05;;;7.20;99.90;;;;;;5056848;28;20021;-44
2022/01/17 12:56:05;;;;;;;15.45;3.45;;;7.30;99.90;;;;;;5060908;28;20021;-44
2022/01/17 12:58:33;;;;;;;18.85;2.97;;;7.40;99.90;;;;;;5069144;28;20017;-44
2022/01/17 13:01:05;;;;;;;13.30;3.47;;;7.60;99.90;;;;;;5073209;28;20034;-45
2022/01/17 13:03:33;;;;;;;19.65;3.88;;;7.60;99.90;;;;;;5068140;28;20021;-48
2022/01/17 13:06:02;;;;;;;14.75;3.40;;;7.50;99.90;;;;;;5068864;28;20414;-44
2022/01/17 13:08:28;;;;;;;16.02;3.83;;;7.40;99.90;;;;;;5070496;28;20029;-44
2022/01/17 13:10:55;;;;;;;16.20;3.38;;;7.30;99.90;;;;;;5066805;28;20021;-45
2022/01/17 13:13:21;;;;;;;18.38;4.70;;;7.30;99.90;;;;;;5078963;28;20017;-44
2022/01/17 13:16:03;;;;;;;18.67;4.25;;;7.20;99.90;;;;;;5063940;28;20036;-44
2022/01/17 13:18:30;;;;;;;15.25;4.38;;;7.10;99.90;;;;;;5049632;28;20033;-44